sensor_id;sensor_type;location;lat;lon;timestamp;P1;durP1;ratioP1;P2;durP2;ratioP2
7657;SDS011;8462;53.156;8.220;2023-03-01T00:02:16;29.57;;;15.13;;
7657;SDS011;8462;53.156;8.220;2023-03-01T00:04:42;26.00;;;13.53;;
7657;SDS011;8462;53.156;8.220;2023-03-01T00:07:09;23.20;;;13.93;;
7657;SDS011;8462;53.156;8.220;2023-03-01T00:09:37;23.10;;;13.27;;
7657;SDS011;8462;53.156;8.220;2023-03-01T00:12:06;22.37;;;14.17;;
7657;SDS011;8462;53.156;8.220;2023-03-01T00:14:33;26.67;;;14.17;;
7657;SDS011;8462;53.156;8.220;2023-03-01T00:17:01;22.77;;;13.53;;
7657;SDS011;8462;53.156;8.220;2023-03-01T00:19:28;27.00;;;13.73;;
7657;SDS011;8462;53.156;8.220;2023-03-01T00:21:55;20.80;;;13.73;;
7657;SDS011;8462;53.156;8.220;2023-03-01T00:24:22;26.07;;;13.93;;
7657;SDS011;8462;53.156;8.220;2023-03-01T00:26:52;30.13;;;14.10;;
7657;SDS011;8462;53.156;8.220;2023-03-01T00:29:22;22.40;;;14.27;;
7657;SDS011;8462;53.156;8.220;2023-03-01T00:31:49;25.30;;;14.60;;
7657;SDS011;8462;53.156;8.220;2023-03-01T00:34:16;26.20;;;15.37;;
7657;SDS011;8462;53.156;8.220;2023-03-01T00:36:43;25.77;;;15.77;;
7657;SDS011;8462;53.156;8.220;2023-03-01T00:39:11;27.90;;;14.97;;
7657;SDS011;8462;53.156;8.220;2023-03-01T00:41:39;26.83;;;14.20;;
7657;SDS011;8462;53.156;8.220;2023-03-01T00:44:07;27.43;;;15.30;;
7657;SDS011;8462;53.156;8.220;2023-03-01T00:46:35;29.90;;;15.20;;
7657;SDS011;8462;53.156;8.220;2023-03-01T00:49:03;23.17;;;14.40;;
7657;SDS011;8462;53.156;8.220;2023-03-01T00:51:30;23.73;;;14.17;;
7657;SDS011;8462;53.156;8.220;2023-03-01T00:53:58;24.97;;;13.93;;
7657;SDS011;8462;53.156;8.220;2023-03-01T00:56:26;30.00;;;15.63;;
7657;SDS011;8462;53.156;8.220;2023-03-01T00:58:54;22.77;;;13.53;;
7657;SDS011;8462;53.156;8.220;2023-03-01T01:01:23;31.67;;;15.37;;
7657;SDS011;8462;53.156;8.220;2023-03-01T01:03:54;24.17;;;13.47;;
7657;SDS011;8462;53.156;8.220;2023-03-01T01:06:23;24.57;;;13.53;;
7657;SDS011;8462;53.156;8.220;2023-03-01T01:08:52;21.63;;;13.27;;
7657;SDS011;8462;53.156;8.220;2023-03-01T01:11:20;25.50;;;14.77;;
7657;SDS011;8462;53.156;8.220;2023-03-01T01:13:48;25.87;;;14.43;;
7657;SDS011;8462;53.156;8.220;2023-03-01T01:16:16;25.77;;;14.57;;
7657;SDS011;8462;53.156;8.220;2023-03-01T01:18:47;24.20;;;14.63;;
7657;SDS011;8462;53.156;8.220;2023-03-01T01:21:20;23.37;;;13.57;;
7657;SDS011;8462;53.156;8.220;2023-03-01T01:23:49;29.90;;;14.37;;
7657;SDS011;8462;53.156;8.220;2023-03-01T01:26:17;21.77;;;13.83;;
7657;SDS011;8462;53.156;8.220;2023-03-01T01:28:46;24.93;;;14.27;;
7657;SDS011;8462;53.156;8.220;2023-03-01T01:31:13;22.17;;;13.50;;
7657;SDS011;8462;53.156;8.220;2023-03-01T01:33:41;28.93;;;13.93;;
7657;SDS011;8462;53.156;8.220;2023-03-01T01:36:08;26.47;;;14.77;;
7657;SDS011;8462;53.156;8.220;2023-03-01T01:38:37;28.50;;;15.43;;
7657;SDS011;8462;53.156;8.220;2023-03-01T01:41:05;24.77;;;14.03;;
7657;SDS011;8462;53.156;8.220;2023-03-01T01:43:34;29.40;;;14.47;;
7657;SDS011;8462;53.156;8.220;2023-03-01T01:46:02;24.40;;;14.80;;
7657;SDS011;8462;53.156;8.220;2023-03-01T01:48:39;23.73;;;13.80;;
7657;SDS011;8462;53.156;8.220;2023-03-01T01:51:10;27.40;;;15.03;;
7657;SDS011;8462;53.156;8.220;2023-03-01T01:53:41;26.33;;;13.97;;
7657;SDS011;8462;53.156;8.220;2023-03-01T01:56:11;22.37;;;12.57;;
7657;SDS011;8462;53.156;8.220;2023-03-01T01:58:40;25.90;;;13.93;;
7657;SDS011;8462;53.156;8.220;2023-03-01T02:01:08;24.80;;;13.43;;
7657;SDS011;8462;53.156;8.220;2023-03-01T02:03:37;26.80;;;13.30;;
7657;SDS011;8462;53.156;8.220;2023-03-01T02:06:12;24.30;;;13.60;;
7657;SDS011;8462;53.156;8.220;2023-03-01T02:08:45;22.80;;;13.17;;
7657;SDS011;8462;53.156;8.220;2023-03-01T02:11:14;21.80;;;12.83;;
7657;SDS011;8462;53.156;8.220;2023-03-01T02:13:43;27.57;;;14.27;;
7657;SDS011;8462;53.156;8.220;2023-03-01T02:16:12;25.60;;;14.17;;
7657;SDS011;8462;53.156;8.220;2023-03-01T02:18:40;25.10;;;13.80;;
7657;SDS011;8462;53.156;8.220;2023-03-01T02:21:13;25.23;;;14.63;;
7657;SDS011;8462;53.156;8.220;2023-03-01T02:23:53;27.73;;;14.20;;
7657;SDS011;8462;53.156;8.220;2023-03-01T02:26:23;21.47;;;13.40;;
7657;SDS011;8462;53.156;8.220;2023-03-01T02:28:59;25.50;;;14.20;;
7657;SDS011;8462;53.156;8.220;2023-03-01T02:31:26;30.73;;;15.27;;
7657;SDS011;8462;53.156;8.220;2023-03-01T02:34:11;22.80;;;12.27;;
7657;SDS011;8462;53.156;8.220;2023-03-01T02:36:40;20.27;;;12.30;;
7657;SDS011;8462;53.156;8.220;2023-03-01T02:39:11;23.33;;;13.00;;
7657;SDS011;8462;53.156;8.220;2023-03-01T02:41:43;25.47;;;13.23;;
7657;SDS011;8462;53.156;8.220;2023-03-01T02:44:14;24.80;;;12.73;;
7657;SDS011;8462;53.156;8.220;2023-03-01T02:46:41;24.60;;;13.60;;
7657;SDS011;8462;53.156;8.220;2023-03-01T02:49:18;24.93;;;14.10;;
7657;SDS011;8462;53.156;8.220;2023-03-01T02:54:40;22.97;;;12.87;;
7657;SDS011;8462;53.156;8.220;2023-03-01T02:57:10;23.53;;;13.03;;
7657;SDS011;8462;53.156;8.220;2023-03-01T02:59:39;20.47;;;12.20;;
7657;SDS011;8462;53.156;8.220;2023-03-01T03:02:18;19.97;;;12.73;;
7657;SDS011;8462;53.156;8.220;2023-03-01T03:05:02;21.03;;;12.03;;
7657;SDS011;8462;53.156;8.220;2023-03-01T03:07:34;22.00;;;12.70;;
7657;SDS011;8462;53.156;8.220;2023-03-01T03:10:03;20.30;;;12.73;;
7657;SDS011;8462;53.156;8.220;2023-03-01T03:12:32;23.87;;;13.83;;
7657;SDS011;8462;53.156;8.220;2023-03-01T03:15:01;24.67;;;14.77;;
7657;SDS011;8462;53.156;8.220;2023-03-01T03:17:33;24.33;;;13.73;;
7657;SDS011;8462;53.156;8.220;2023-03-01T03:20:01;23.67;;;13.47;;
7657;SDS011;8462;53.156;8.220;2023-03-01T03:22:28;23.17;;;12.63;;
7657;SDS011;8462;53.156;8.220;2023-03-01T03:24:55;22.93;;;12.90;;
7657;SDS011;8462;53.156;8.220;2023-03-01T03:27:22;26.43;;;14.20;;
7657;SDS011;8462;53.156;8.220;2023-03-01T03:29:49;23.00;;;12.33;;
7657;SDS011;8462;53.156;8.220;2023-03-01T03:32:17;21.87;;;13.33;;
7657;SDS011;8462;53.156;8.220;2023-03-01T03:34:44;20.93;;;12.60;;
7657;SDS011;8462;53.156;8.220;2023-03-01T03:37:11;23.23;;;13.23;;
7657;SDS011;8462;53.156;8.220;2023-03-01T03:39:52;25.27;;;13.10;;
7657;SDS011;8462;53.156;8.220;2023-03-01T03:42:20;21.60;;;13.53;;
7657;SDS011;8462;53.156;8.220;2023-03-01T03:44:47;19.87;;;12.07;;
7657;SDS011;8462;53.156;8.220;2023-03-01T03:47:14;26.30;;;13.90;;
7657;SDS011;8462;53.156;8.220;2023-03-01T03:49:42;22.53;;;13.13;;
7657;SDS011;8462;53.156;8.220;2023-03-01T03:52:09;21.73;;;13.40;;
7657;SDS011;8462;53.156;8.220;2023-03-01T03:54:38;25.37;;;12.83;;
7657;SDS011;8462;53.156;8.220;2023-03-01T03:57:06;23.17;;;13.40;;
7657;SDS011;8462;53.156;8.220;2023-03-01T03:59:32;24.10;;;13.33;;
7657;SDS011;8462;53.156;8.220;2023-03-01T04:01:59;22.27;;;13.33;;
7657;SDS011;8462;53.156;8.220;2023-03-01T04:04:26;22.70;;;13.47;;
7657;SDS011;8462;53.156;8.220;2023-03-01T04:06:54;20.60;;;12.97;;
7657;SDS011;8462;53.156;8.220;2023-03-01T04:09:21;20.60;;;11.93;;
7657;SDS011;8462;53.156;8.220;2023-03-01T04:11:48;22.77;;;12.57;;
7657;SDS011;8462;53.156;8.220;2023-03-01T04:14:15;21.90;;;12.70;;
7657;SDS011;8462;53.156;8.220;2023-03-01T04:16:42;22.17;;;13.60;;
7657;SDS011;8462;53.156;8.220;2023-03-01T04:19:09;21.43;;;12.93;;
7657;SDS011;8462;53.156;8.220;2023-03-01T04:21:35;20.83;;;12.80;;
7657;SDS011;8462;53.156;8.220;2023-03-01T04:24:04;22.53;;;13.63;;
7657;SDS011;8462;53.156;8.220;2023-03-01T04:26:31;26.93;;;14.57;;
7657;SDS011;8462;53.156;8.220;2023-03-01T04:28:58;23.87;;;14.67;;
7657;SDS011;8462;53.156;8.220;2023-03-01T04:31:25;28.60;;;15.53;;
7657;SDS011;8462;53.156;8.220;2023-03-01T04:33:53;24.70;;;15.70;;
7657;SDS011;8462;53.156;8.220;2023-03-01T04:36:22;21.77;;;13.13;;
7657;SDS011;8462;53.156;8.220;2023-03-01T04:38:50;23.30;;;14.63;;
7657;SDS011;8462;53.156;8.220;2023-03-01T04:41:19;25.93;;;13.63;;
7657;SDS011;8462;53.156;8.220;2023-03-01T04:43:48;24.87;;;14.93;;
7657;SDS011;8462;53.156;8.220;2023-03-01T04:46:16;23.10;;;13.90;;
7657;SDS011;8462;53.156;8.220;2023-03-01T04:48:44;28.00;;;14.07;;
7657;SDS011;8462;53.156;8.220;2023-03-01T04:51:12;30.60;;;15.73;;
7657;SDS011;8462;53.156;8.220;2023-03-01T04:53:41;24.30;;;13.93;;
7657;SDS011;8462;53.156;8.220;2023-03-01T04:56:08;26.27;;;14.20;;
7657;SDS011;8462;53.156;8.220;2023-03-01T04:58:36;28.93;;;15.20;;
7657;SDS011;8462;53.156;8.220;2023-03-01T05:01:07;28.27;;;14.00;;
7657;SDS011;8462;53.156;8.220;2023-03-01T05:03:40;23.00;;;14.60;;
7657;SDS011;8462;53.156;8.220;2023-03-01T05:06:07;25.67;;;14.40;;
7657;SDS011;8462;53.156;8.220;2023-03-01T05:08:36;28.17;;;14.83;;
7657;SDS011;8462;53.156;8.220;2023-03-01T05:11:03;25.73;;;14.80;;
7657;SDS011;8462;53.156;8.220;2023-03-01T05:13:34;24.60;;;14.03;;
7657;SDS011;8462;53.156;8.220;2023-03-01T05:16:03;25.57;;;13.67;;
7657;SDS011;8462;53.156;8.220;2023-03-01T05:18:32;23.40;;;13.67;;
7657;SDS011;8462;53.156;8.220;2023-03-01T05:21:01;25.50;;;13.27;;
7657;SDS011;8462;53.156;8.220;2023-03-01T05:23:30;27.57;;;14.20;;
7657;SDS011;8462;53.156;8.220;2023-03-01T05:25:58;24.97;;;14.63;;
7657;SDS011;8462;53.156;8.220;2023-03-01T05:28:25;23.60;;;14.97;;
7657;SDS011;8462;53.156;8.220;2023-03-01T05:30:53;28.83;;;14.70;;
7657;SDS011;8462;53.156;8.220;2023-03-01T05:33:21;25.40;;;15.13;;
7657;SDS011;8462;53.156;8.220;2023-03-01T05:35:49;24.97;;;14.27;;
7657;SDS011;8462;53.156;8.220;2023-03-01T05:38:18;23.03;;;13.33;;
7657;SDS011;8462;53.156;8.220;2023-03-01T05:40:47;26.30;;;13.50;;
7657;SDS011;8462;53.156;8.220;2023-03-01T05:43:15;26.90;;;14.63;;
7657;SDS011;8462;53.156;8.220;2023-03-01T05:45:43;26.10;;;13.87;;
7657;SDS011;8462;53.156;8.220;2023-03-01T05:48:11;25.93;;;14.03;;
7657;SDS011;8462;53.156;8.220;2023-03-01T05:50:41;29.83;;;15.13;;
7657;SDS011;8462;53.156;8.220;2023-03-01T05:53:10;24.80;;;14.63;;
7657;SDS011;8462;53.156;8.220;2023-03-01T05:55:39;26.33;;;15.27;;
7657;SDS011;8462;53.156;8.220;2023-03-01T05:58:07;27.67;;;15.10;;
7657;SDS011;8462;53.156;8.220;2023-03-01T06:00:40;24.77;;;14.43;;
7657;SDS011;8462;53.156;8.220;2023-03-01T06:03:09;24.83;;;14.57;;
7657;SDS011;8462;53.156;8.220;2023-03-01T06:05:40;25.10;;;14.30;;
7657;SDS011;8462;53.156;8.220;2023-03-01T06:08:09;26.40;;;14.60;;
7657;SDS011;8462;53.156;8.220;2023-03-01T06:10:36;22.80;;;13.93;;
7657;SDS011;8462;53.156;8.220;2023-03-01T06:13:04;22.40;;;12.60;;
7657;SDS011;8462;53.156;8.220;2023-03-01T06:15:31;25.50;;;14.27;;
7657;SDS011;8462;53.156;8.220;2023-03-01T06:17:58;25.13;;;13.63;;
7657;SDS011;8462;53.156;8.220;2023-03-01T06:20:25;20.67;;;12.80;;
7657;SDS011;8462;53.156;8.220;2023-03-01T06:22:54;22.63;;;13.87;;
7657;SDS011;8462;53.156;8.220;2023-03-01T06:25:23;26.27;;;14.53;;
7657;SDS011;8462;53.156;8.220;2023-03-01T06:27:51;29.60;;;15.67;;
7657;SDS011;8462;53.156;8.220;2023-03-01T06:30:19;30.97;;;18.20;;
7657;SDS011;8462;53.156;8.220;2023-03-01T06:32:47;37.07;;;20.53;;
7657;SDS011;8462;53.156;8.220;2023-03-01T06:35:14;52.00;;;27.20;;
7657;SDS011;8462;53.156;8.220;2023-03-01T06:37:43;39.87;;;21.33;;
7657;SDS011;8462;53.156;8.220;2023-03-01T06:40:12;27.70;;;16.23;;
7657;SDS011;8462;53.156;8.220;2023-03-01T06:42:40;29.33;;;16.47;;
7657;SDS011;8462;53.156;8.220;2023-03-01T06:45:09;26.33;;;14.53;;
7657;SDS011;8462;53.156;8.220;2023-03-01T06:47:36;25.37;;;16.00;;
7657;SDS011;8462;53.156;8.220;2023-03-01T06:50:03;30.33;;;14.60;;
7657;SDS011;8462;53.156;8.220;2023-03-01T06:52:31;29.50;;;14.73;;
7657;SDS011;8462;53.156;8.220;2023-03-01T06:54:58;28.03;;;15.60;;
7657;SDS011;8462;53.156;8.220;2023-03-01T06:57:26;23.73;;;13.67;;
7657;SDS011;8462;53.156;8.220;2023-03-01T06:59:53;24.67;;;13.47;;
7657;SDS011;8462;53.156;8.220;2023-03-01T07:02:20;25.83;;;14.50;;
7657;SDS011;8462;53.156;8.220;2023-03-01T07:04:48;26.40;;;14.47;;
7657;SDS011;8462;53.156;8.220;2023-03-01T07:07:15;24.93;;;14.40;;
7657;SDS011;8462;53.156;8.220;2023-03-01T07:09:43;27.27;;;15.13;;
7657;SDS011;8462;53.156;8.220;2023-03-01T07:12:10;29.20;;;13.73;;
7657;SDS011;8462;53.156;8.220;2023-03-01T07:14:38;23.03;;;13.43;;
7657;SDS011;8462;53.156;8.220;2023-03-01T07:17:05;22.70;;;14.40;;
7657;SDS011;8462;53.156;8.220;2023-03-01T07:19:32;23.53;;;14.37;;
7657;SDS011;8462;53.156;8.220;2023-03-01T07:21:59;23.50;;;13.03;;
7657;SDS011;8462;53.156;8.220;2023-03-01T07:24:25;20.70;;;12.17;;
7657;SDS011;8462;53.156;8.220;2023-03-01T07:26:53;24.83;;;12.63;;
7657;SDS011;8462;53.156;8.220;2023-03-01T07:29:20;21.43;;;12.50;;
7657;SDS011;8462;53.156;8.220;2023-03-01T07:31:48;20.63;;;12.80;;
7657;SDS011;8462;53.156;8.220;2023-03-01T07:34:15;18.10;;;12.03;;
7657;SDS011;8462;53.156;8.220;2023-03-01T07:36:42;20.60;;;11.63;;
7657;SDS011;8462;53.156;8.220;2023-03-01T07:39:10;16.13;;;11.27;;
7657;SDS011;8462;53.156;8.220;2023-03-01T07:41:37;21.97;;;12.80;;
7657;SDS011;8462;53.156;8.220;2023-03-01T07:44:04;22.33;;;13.10;;
7657;SDS011;8462;53.156;8.220;2023-03-01T07:46:31;19.27;;;11.73;;
7657;SDS011;8462;53.156;8.220;2023-03-01T07:49:00;21.70;;;13.37;;
7657;SDS011;8462;53.156;8.220;2023-03-01T07:51:28;22.33;;;12.57;;
7657;SDS011;8462;53.156;8.220;2023-03-01T07:53:55;22.33;;;13.30;;
7657;SDS011;8462;53.156;8.220;2023-03-01T07:56:22;22.57;;;14.57;;
7657;SDS011;8462;53.156;8.220;2023-03-01T07:58:49;23.53;;;14.20;;
7657;SDS011;8462;53.156;8.220;2023-03-01T08:01:16;18.03;;;12.70;;
7657;SDS011;8462;53.156;8.220;2023-03-01T08:03:44;18.93;;;11.83;;
7657;SDS011;8462;53.156;8.220;2023-03-01T08:06:13;21.20;;;13.37;;
7657;SDS011;8462;53.156;8.220;2023-03-01T08:08:41;17.33;;;11.67;;
7657;SDS011;8462;53.156;8.220;2023-03-01T08:11:10;16.70;;;10.80;;
7657;SDS011;8462;53.156;8.220;2023-03-01T08:13:38;24.40;;;12.70;;
7657;SDS011;8462;53.156;8.220;2023-03-01T08:16:06;19.53;;;12.30;;
7657;SDS011;8462;53.156;8.220;2023-03-01T08:18:35;19.20;;;12.57;;
7657;SDS011;8462;53.156;8.220;2023-03-01T08:21:03;20.37;;;11.73;;
7657;SDS011;8462;53.156;8.220;2023-03-01T08:23:32;20.90;;;12.77;;
7657;SDS011;8462;53.156;8.220;2023-03-01T08:26:06;18.00;;;12.20;;
7657;SDS011;8462;53.156;8.220;2023-03-01T08:28:37;21.23;;;12.40;;
7657;SDS011;8462;53.156;8.220;2023-03-01T08:31:13;20.17;;;12.57;;
7657;SDS011;8462;53.156;8.220;2023-03-01T08:33:43;16.60;;;11.23;;
7657;SDS011;8462;53.156;8.220;2023-03-01T08:36:15;17.07;;;10.03;;
7657;SDS011;8462;53.156;8.220;2023-03-01T08:38:44;20.33;;;11.17;;
7657;SDS011;8462;53.156;8.220;2023-03-01T08:41:10;13.20;;;9.60;;
7657;SDS011;8462;53.156;8.220;2023-03-01T08:43:37;14.57;;;9.60;;
7657;SDS011;8462;53.156;8.220;2023-03-01T08:46:04;13.00;;;9.20;;
7657;SDS011;8462;53.156;8.220;2023-03-01T08:48:31;15.87;;;10.13;;
7657;SDS011;8462;53.156;8.220;2023-03-01T08:51:06;15.40;;;11.73;;
7657;SDS011;8462;53.156;8.220;2023-03-01T08:53:33;17.63;;;12.20;;
7657;SDS011;8462;53.156;8.220;2023-03-01T08:56:02;16.13;;;10.40;;
7657;SDS011;8462;53.156;8.220;2023-03-01T08:58:29;15.73;;;10.27;;
7657;SDS011;8462;53.156;8.220;2023-03-01T09:00:56;17.60;;;10.93;;
7657;SDS011;8462;53.156;8.220;2023-03-01T09:03:25;17.93;;;11.23;;
7657;SDS011;8462;53.156;8.220;2023-03-01T09:05:52;17.57;;;11.20;;
7657;SDS011;8462;53.156;8.220;2023-03-01T09:08:19;17.57;;;11.77;;
7657;SDS011;8462;53.156;8.220;2023-03-01T09:10:46;19.47;;;9.90;;
7657;SDS011;8462;53.156;8.220;2023-03-01T09:13:14;15.73;;;10.53;;
7657;SDS011;8462;53.156;8.220;2023-03-01T09:15:41;14.30;;;9.57;;
7657;SDS011;8462;53.156;8.220;2023-03-01T09:18:09;12.47;;;8.67;;
7657;SDS011;8462;53.156;8.220;2023-03-01T09:20:36;9.90;;;6.97;;
7657;SDS011;8462;53.156;8.220;2023-03-01T09:23:04;11.33;;;7.90;;
7657;SDS011;8462;53.156;8.220;2023-03-01T09:25:31;11.20;;;7.70;;
7657;SDS011;8462;53.156;8.220;2023-03-01T09:28:01;11.93;;;7.73;;
7657;SDS011;8462;53.156;8.220;2023-03-01T09:30:30;11.97;;;8.37;;
7657;SDS011;8462;53.156;8.220;2023-03-01T09:32:57;12.83;;;8.50;;
7657;SDS011;8462;53.156;8.220;2023-03-01T09:35:24;12.70;;;7.97;;
7657;SDS011;8462;53.156;8.220;2023-03-01T09:37:51;13.00;;;6.40;;
7657;SDS011;8462;53.156;8.220;2023-03-01T09:40:18;7.47;;;5.10;;
7657;SDS011;8462;53.156;8.220;2023-03-01T09:42:49;6.80;;;4.30;;
7657;SDS011;8462;53.156;8.220;2023-03-01T09:45:23;8.40;;;5.23;;
7657;SDS011;8462;53.156;8.220;2023-03-01T09:47:56;8.77;;;5.33;;
7657;SDS011;8462;53.156;8.220;2023-03-01T09:50:23;10.00;;;5.93;;
7657;SDS011;8462;53.156;8.220;2023-03-01T09:52:54;6.57;;;4.50;;
7657;SDS011;8462;53.156;8.220;2023-03-01T09:55:29;10.20;;;5.10;;
7657;SDS011;8462;53.156;8.220;2023-03-01T09:58:00;8.30;;;4.80;;
7657;SDS011;8462;53.156;8.220;2023-03-01T10:00:44;7.97;;;5.53;;
7657;SDS011;8462;53.156;8.220;2023-03-01T10:03:17;7.13;;;5.17;;
7657;SDS011;8462;53.156;8.220;2023-03-01T10:05:57;6.30;;;4.20;;
7657;SDS011;8462;53.156;8.220;2023-03-01T10:08:31;8.97;;;4.90;;
7657;SDS011;8462;53.156;8.220;2023-03-01T10:11:04;5.87;;;4.60;;
7657;SDS011;8462;53.156;8.220;2023-03-01T10:13:43;5.60;;;4.20;;
7657;SDS011;8462;53.156;8.220;2023-03-01T10:16:19;4.37;;;2.97;;
7657;SDS011;8462;53.156;8.220;2023-03-01T10:18:53;5.63;;;4.03;;
7657;SDS011;8462;53.156;8.220;2023-03-01T10:21:25;5.93;;;3.40;;
7657;SDS011;8462;53.156;8.220;2023-03-01T10:23:53;5.27;;;3.50;;
7657;SDS011;8462;53.156;8.220;2023-03-01T10:26:38;4.50;;;3.60;;
7657;SDS011;8462;53.156;8.220;2023-03-01T10:29:14;5.27;;;3.87;;
7657;SDS011;8462;53.156;8.220;2023-03-01T10:31:42;4.57;;;3.07;;
7657;SDS011;8462;53.156;8.220;2023-03-01T10:34:13;4.33;;;2.90;;
7657;SDS011;8462;53.156;8.220;2023-03-01T10:36:43;4.90;;;3.40;;
7657;SDS011;8462;53.156;8.220;2023-03-01T10:39:12;7.93;;;3.73;;
7657;SDS011;8462;53.156;8.220;2023-03-01T10:41:52;7.03;;;3.80;;
7657;SDS011;8462;53.156;8.220;2023-03-01T10:44:37;6.73;;;3.97;;
7657;SDS011;8462;53.156;8.220;2023-03-01T10:47:09;6.57;;;4.10;;
7657;SDS011;8462;53.156;8.220;2023-03-01T10:49:51;6.43;;;4.20;;
7657;SDS011;8462;53.156;8.220;2023-03-01T10:52:26;4.87;;;3.50;;
7657;SDS011;8462;53.156;8.220;2023-03-01T10:54:56;5.70;;;3.57;;
7657;SDS011;8462;53.156;8.220;2023-03-01T10:57:31;7.90;;;4.43;;
7657;SDS011;8462;53.156;8.220;2023-03-01T11:03:02;9.43;;;5.17;;
7657;SDS011;8462;53.156;8.220;2023-03-01T11:05:41;7.53;;;4.63;;
7657;SDS011;8462;53.156;8.220;2023-03-01T11:08:34;8.43;;;4.97;;
7657;SDS011;8462;53.156;8.220;2023-03-01T11:11:13;8.77;;;4.73;;
7657;SDS011;8462;53.156;8.220;2023-03-01T11:13:52;7.83;;;5.93;;
7657;SDS011;8462;53.156;8.220;2023-03-01T11:16:31;7.73;;;5.00;;
7657;SDS011;8462;53.156;8.220;2023-03-01T11:19:03;8.60;;;5.57;;
7657;SDS011;8462;53.156;8.220;2023-03-01T11:21:44;10.80;;;6.00;;
7657;SDS011;8462;53.156;8.220;2023-03-01T11:24:24;8.67;;;5.53;;
7657;SDS011;8462;53.156;8.220;2023-03-01T11:26:56;10.80;;;5.40;;
7657;SDS011;8462;53.156;8.220;2023-03-01T11:29:30;10.03;;;7.00;;
7657;SDS011;8462;53.156;8.220;2023-03-01T11:32:03;13.53;;;8.10;;
7657;SDS011;8462;53.156;8.220;2023-03-01T11:34:42;11.97;;;7.27;;
7657;SDS011;8462;53.156;8.220;2023-03-01T11:37:18;12.70;;;7.30;;
7657;SDS011;8462;53.156;8.220;2023-03-01T11:39:52;9.60;;;5.90;;
7657;SDS011;8462;53.156;8.220;2023-03-01T11:42:25;9.77;;;6.03;;
7657;SDS011;8462;53.156;8.220;2023-03-01T11:45:02;12.80;;;7.60;;
7657;SDS011;8462;53.156;8.220;2023-03-01T11:47:38;11.87;;;7.77;;
7657;SDS011;8462;53.156;8.220;2023-03-01T11:50:26;11.83;;;7.37;;
7657;SDS011;8462;53.156;8.220;2023-03-01T11:53:03;13.03;;;8.53;;
7657;SDS011;8462;53.156;8.220;2023-03-01T11:55:49;12.73;;;8.40;;
7657;SDS011;8462;53.156;8.220;2023-03-01T11:58:33;12.33;;;7.63;;
7657;SDS011;8462;53.156;8.220;2023-03-01T12:01:30;10.13;;;7.33;;
7657;SDS011;8462;53.156;8.220;2023-03-01T12:04:10;13.43;;;8.97;;
7657;SDS011;8462;53.156;8.220;2023-03-01T12:07:04;13.47;;;7.77;;
7657;SDS011;8462;53.156;8.220;2023-03-01T12:09:41;12.57;;;8.50;;
7657;SDS011;8462;53.156;8.220;2023-03-01T12:15:32;15.43;;;8.60;;
7657;SDS011;8462;53.156;8.220;2023-03-01T12:21:16;13.93;;;7.80;;
7657;SDS011;8462;53.156;8.220;2023-03-01T12:24:04;13.00;;;8.57;;
7657;SDS011;8462;53.156;8.220;2023-03-01T12:26:57;14.97;;;8.80;;
7657;SDS011;8462;53.156;8.220;2023-03-01T12:29:37;15.97;;;9.17;;
7657;SDS011;8462;53.156;8.220;2023-03-01T12:32:22;14.43;;;8.57;;
7657;SDS011;8462;53.156;8.220;2023-03-01T12:35:09;13.00;;;7.87;;
7657;SDS011;8462;53.156;8.220;2023-03-01T12:37:56;12.57;;;7.30;;
7657;SDS011;8462;53.156;8.220;2023-03-01T12:40:43;13.37;;;8.27;;
7657;SDS011;8462;53.156;8.220;2023-03-01T12:43:25;12.80;;;8.47;;
7657;SDS011;8462;53.156;8.220;2023-03-01T12:46:07;9.93;;;7.47;;
7657;SDS011;8462;53.156;8.220;2023-03-01T12:48:44;8.80;;;6.00;;
7657;SDS011;8462;53.156;8.220;2023-03-01T12:51:18;12.13;;;8.43;;
7657;SDS011;8462;53.156;8.220;2023-03-01T12:53:51;13.43;;;8.63;;
7657;SDS011;8462;53.156;8.220;2023-03-01T12:56:21;15.57;;;8.93;;
7657;SDS011;8462;53.156;8.220;2023-03-01T12:58:56;14.13;;;8.00;;
7657;SDS011;8462;53.156;8.220;2023-03-01T13:01:40;10.93;;;7.63;;
7657;SDS011;8462;53.156;8.220;2023-03-01T13:04:17;13.93;;;8.33;;
7657;SDS011;8462;53.156;8.220;2023-03-01T13:06:58;14.23;;;8.63;;
7657;SDS011;8462;53.156;8.220;2023-03-01T13:09:39;19.10;;;9.03;;
7657;SDS011;8462;53.156;8.220;2023-03-01T13:15:27;15.82;;;9.02;;
7657;SDS011;8462;53.156;8.220;2023-03-01T13:17:59;11.50;;;6.93;;
7657;SDS011;8462;53.156;8.220;2023-03-01T13:20:29;16.73;;;9.10;;
7657;SDS011;8462;53.156;8.220;2023-03-01T13:23:06;13.33;;;8.87;;
7657;SDS011;8462;53.156;8.220;2023-03-01T13:25:42;14.13;;;9.50;;
7657;SDS011;8462;53.156;8.220;2023-03-01T13:28:38;14.30;;;9.23;;
7657;SDS011;8462;53.156;8.220;2023-03-01T13:34:42;14.07;;;8.80;;
7657;SDS011;8462;53.156;8.220;2023-03-01T13:37:25;12.57;;;7.73;;
7657;SDS011;8462;53.156;8.220;2023-03-01T13:39:57;13.10;;;9.20;;
7657;SDS011;8462;53.156;8.220;2023-03-01T13:42:33;15.30;;;8.77;;
7657;SDS011;8462;53.156;8.220;2023-03-01T13:45:25;17.00;;;9.77;;
7657;SDS011;8462;53.156;8.220;2023-03-01T13:48:03;13.97;;;9.10;;
7657;SDS011;8462;53.156;8.220;2023-03-01T13:50:38;16.60;;;9.43;;
7657;SDS011;8462;53.156;8.220;2023-03-01T13:53:14;15.00;;;9.30;;
7657;SDS011;8462;53.156;8.220;2023-03-01T13:55:45;12.83;;;8.60;;
7657;SDS011;8462;53.156;8.220;2023-03-01T13:58:15;15.50;;;8.50;;
7657;SDS011;8462;53.156;8.220;2023-03-01T14:00:54;14.00;;;9.20;;
7657;SDS011;8462;53.156;8.220;2023-03-01T14:03:24;14.27;;;8.87;;
7657;SDS011;8462;53.156;8.220;2023-03-01T14:06:01;13.07;;;9.13;;
7657;SDS011;8462;53.156;8.220;2023-03-01T14:08:31;15.17;;;10.00;;
7657;SDS011;8462;53.156;8.220;2023-03-01T14:11:06;14.37;;;8.57;;
7657;SDS011;8462;53.156;8.220;2023-03-01T14:17:09;12.50;;;8.53;;
7657;SDS011;8462;53.156;8.220;2023-03-01T14:19:56;14.23;;;8.70;;
7657;SDS011;8462;53.156;8.220;2023-03-01T14:22:25;10.77;;;6.97;;
7657;SDS011;8462;53.156;8.220;2023-03-01T14:24:55;14.70;;;9.10;;
7657;SDS011;8462;53.156;8.220;2023-03-01T14:27:25;16.63;;;8.83;;
7657;SDS011;8462;53.156;8.220;2023-03-01T14:29:56;13.80;;;9.47;;
7657;SDS011;8462;53.156;8.220;2023-03-01T14:32:25;14.67;;;9.17;;
7657;SDS011;8462;53.156;8.220;2023-03-01T14:34:53;13.97;;;9.53;;
7657;SDS011;8462;53.156;8.220;2023-03-01T14:37:22;12.20;;;7.70;;
7657;SDS011;8462;53.156;8.220;2023-03-01T14:39:52;13.93;;;8.57;;
7657;SDS011;8462;53.156;8.220;2023-03-01T14:42:20;14.70;;;9.73;;
7657;SDS011;8462;53.156;8.220;2023-03-01T14:44:50;17.20;;;10.67;;
7657;SDS011;8462;53.156;8.220;2023-03-01T14:47:25;17.83;;;11.37;;
7657;SDS011;8462;53.156;8.220;2023-03-01T14:49:56;17.47;;;11.03;;
7657;SDS011;8462;53.156;8.220;2023-03-01T14:52:27;18.97;;;8.67;;
7657;SDS011;8462;53.156;8.220;2023-03-01T14:55:01;18.57;;;11.83;;
7657;SDS011;8462;53.156;8.220;2023-03-01T14:57:30;17.53;;;11.27;;
7657;SDS011;8462;53.156;8.220;2023-03-01T14:59:57;15.10;;;9.33;;
7657;SDS011;8462;53.156;8.220;2023-03-01T15:02:29;15.33;;;10.67;;
7657;SDS011;8462;53.156;8.220;2023-03-01T15:04:58;37.43;;;19.87;;
7657;SDS011;8462;53.156;8.220;2023-03-01T15:07:31;20.23;;;12.07;;
7657;SDS011;8462;53.156;8.220;2023-03-01T15:10:02;22.17;;;13.43;;
7657;SDS011;8462;53.156;8.220;2023-03-01T15:12:35;17.80;;;11.70;;
7657;SDS011;8462;53.156;8.220;2023-03-01T15:17:49;18.80;;;11.73;;
7657;SDS011;8462;53.156;8.220;2023-03-01T15:20:20;18.17;;;11.30;;
7657;SDS011;8462;53.156;8.220;2023-03-01T15:22:52;18.57;;;11.83;;
7657;SDS011;8462;53.156;8.220;2023-03-01T15:25:20;19.50;;;11.70;;
7657;SDS011;8462;53.156;8.220;2023-03-01T15:27:49;19.07;;;11.50;;
7657;SDS011;8462;53.156;8.220;2023-03-01T15:30:20;20.33;;;12.57;;
7657;SDS011;8462;53.156;8.220;2023-03-01T15:32:48;18.40;;;11.87;;
7657;SDS011;8462;53.156;8.220;2023-03-01T15:35:46;19.40;;;11.60;;
7657;SDS011;8462;53.156;8.220;2023-03-01T15:38:26;17.50;;;11.93;;
7657;SDS011;8462;53.156;8.220;2023-03-01T15:40:57;19.70;;;12.60;;
7657;SDS011;8462;53.156;8.220;2023-03-01T15:43:41;22.33;;;12.93;;